Time;durP1;ratioP1;P1;durP2;ratioP2;P2;SDS_P1;SDS_P2;PMS_P1;PMS_P2;Temp;Humidity;BMP_temperature;BMP_pressure;BME280_temperature;BME280_humidity;BME280_pressure;Samples;Min_cycle;Max_cycle;Signal;HPM_P1;HPM_P2
2023/07/09 00:00:51;;;;;;;4.30;1.60;;;20.80;67.70;;;;;;5041817;28;20071;-80
2023/07/09 00:03:20;;;;;;;6.40;1.90;;;20.80;67.70;;;;;;5040930;28;20424;-80
2023/07/09 00:05:48;;;;;;;7.60;2.58;;;20.80;67.80;;;;;;5053720;28;20021;-80
2023/07/09 00:08:27;;;;;;;7.10;1.98;;;20.80;67.80;;;;;;5053270;28;20047;-80
2023/07/09 00:10:55;;;;;;;5.05;2.00;;;20.70;67.80;;;;;;5040126;28;20098;-80
2023/07/09 00:13:27;;;;;;;5.80;2.40;;;20.70;67.70;;;;;;5049640;28;20036;-80
2023/07/09 00:16:00;;;;;;;5.85;2.20;;;20.70;67.80;;;;;;5034756;28;20471;-80
2023/07/09 00:18:45;;;;;;;4.70;2.25;;;20.60;67.70;;;;;;5051385;28;20455;-80
2023/07/09 00:21:26;;;;;;;4.03;1.48;;;20.60;67.70;;;;;;5041708;28;20059;-80
2023/07/09 00:23:56;;;;;;;4.07;1.70;;;20.60;67.70;;;;;;5023632;28;20140;-80
2023/07/09 00:26:41;;;;;;;7.78;2.22;;;20.60;67.80;;;;;;5047676;28;20167;-80
2023/07/09 00:29:13;;;;;;;3.97;1.75;;;20.50;67.60;;;;;;5031211;28;20570;-80
2023/07/09 00:31:40;;;;;;;5.70;2.08;;;20.50;67.70;;;;;;5037802;28;20416;-81
2023/07/09 00:34:27;;;;;;;6.07;2.05;;;20.50;67.80;;;;;;5046326;28;20093;-81
2023/07/09 00:36:56;;;;;;;6.20;1.90;;;20.40;67.60;;;;;;5046759;28;20042;-82
2023/07/09 00:39:23;;;;;;;6.43;1.77;;;20.40;67.70;;;;;;5039122;28;20413;-83
2023/07/09 00:41:51;;;;;;;3.72;1.60;;;20.40;67.80;;;;;;5039955;28;20033;-82
2023/07/09 00:44:24;;;;;;;5.40;1.88;;;20.40;67.80;;;;;;5036939;28;20085;-83
2023/07/09 00:46:50;;;;;;;7.53;1.80;;;20.30;67.70;;;;;;5037564;28;20131;-83
2023/07/09 00:49:30;;;;;;;5.43;1.90;;;20.30;67.70;;;;;;5056723;28;20071;-81
2023/07/09 00:52:33;;;;;;;7.32;3.08;;;20.30;67.90;;;;;;5038917;28;20049;-82
2023/07/09 00:55:22;;;;;;;4.13;1.85;;;20.30;67.90;;;;;;5049299;28;20029;-82
2023/07/09 00:57:57;;;;;;;4.10;1.67;;;20.20;67.60;;;;;;5029532;28;20411;-83
2023/07/09 01:00:30;;;;;;;5.30;1.73;;;20.20;67.70;;;;;;5039881;28;20099;-82
2023/07/09 01:03:00;;;;;;;6.40;2.05;;;20.20;67.80;;;;;;5043192;28;20056;-83
2023/07/09 01:05:27;;;;;;;5.80;1.70;;;20.10;67.60;;;;;;5037002;28;20052;-83
2023/07/09 01:07:53;;;;;;;3.90;1.45;;;20.10;67.60;;;;;;5052060;28;20429;-82
2023/07/09 01:10:31;;;;;;;5.47;2.55;;;20.10;67.70;;;;;;5028528;28;20033;-84
2023/07/09 01:12:58;;;;;;;7.07;2.03;;;20.00;67.60;;;;;;5041093;28;20056;-83
2023/07/09 01:15:42;;;;;;;5.80;1.73;;;20.00;67.70;;;;;;5044313;28;20032;-81
2023/07/09 01:18:14;;;;;;;6.35;2.92;;;20.00;67.70;;;;;;5047352;28;20079;-81
2023/07/09 01:20:41;;;;;;;5.32;1.95;;;19.90;67.60;;;;;;5041102;28;20029;-81
2023/07/09 01:23:08;;;;;;;5.03;1.42;;;19.90;67.60;;;;;;5040452;28;20120;-81
2023/07/09 01:25:40;;;;;;;5.28;1.58;;;19.90;67.70;;;;;;5032580;28;20345;-80
2023/07/09 01:28:07;;;;;;;6.28;2.00;;;19.90;67.80;;;;;;5036195;28;20040;-80
2023/07/09 01:30:39;;;;;;;5.63;2.00;;;19.80;67.60;;;;;;5049330;28;20498;-80
2023/07/09 01:33:09;;;;;;;5.00;1.30;;;19.80;67.60;;;;;;5059435;28;20450;-80
2023/07/09 01:35:42;;;;;;;5.03;2.00;;;19.80;67.70;;;;;;5044338;28;20029;-81
2023/07/09 01:38:17;;;;;;;6.10;2.05;;;19.80;67.70;;;;;;5038911;28;20440;-81
2023/07/09 01:40:46;;;;;;;5.55;2.25;;;19.80;67.80;;;;;;5035797;28;20087;-81
2023/07/09 01:43:12;;;;;;;8.40;2.65;;;19.70;67.60;;;;;;5054564;28;20024;-80
2023/07/09 01:45:39;;;;;;;5.32;1.90;;;19.70;67.70;;;;;;5033503;28;20119;-80
2023/07/09 01:48:24;;;;;;;4.25;2.25;;;19.70;67.70;;;;;;5042491;28;20033;-80
2023/07/09 01:50:53;;;;;;;6.38;1.95;;;19.70;67.80;;;;;;5010978;28;20041;-79
2023/07/09 01:53:23;;;;;;;4.47;2.03;;;19.60;67.60;;;;;;5059285;28;20021;-80
2023/07/09 01:55:50;;;;;;;4.32;1.40;;;19.70;67.90;;;;;;5047453;28;20127;-81
2023/07/09 01:58:17;;;;;;;2.75;1.17;;;19.60;67.80;;;;;;5045415;28;20071;-80
2023/07/09 02:00:44;;;;;;;4.50;1.85;;;19.60;67.80;;;;;;5046820;28;20028;-80
2023/07/09 02:03:11;;;;;;;5.57;2.03;;;19.60;67.80;;;;;;5043100;28;20033;-80
2023/07/09 02:05:40;;;;;;;5.10;1.50;;;19.60;67.90;;;;;;5042152;28;20043;-81
2023/07/09 02:08:07;;;;;;;7.00;2.75;;;19.50;67.70;;;;;;5036083;28;20025;-80
2023/07/09 02:10:36;;;;;;;3.47;1.55;;;19.50;67.80;;;;;;5050448;28;20037;-81
2023/07/09 02:13:06;;;;;;;4.65;1.98;;;19.50;67.80;;;;;;5057742;28;20043;-80
2023/07/09 02:15:36;;;;;;;5.15;1.80;;;19.50;67.90;;;;;;5041156;28;20033;-81
2023/07/09 02:18:03;;;;;;;4.78;2.03;;;19.40;67.70;;;;;;5011832;28;20060;-80
2023/07/09 02:20:29;;;;;;;7.13;1.60;;;19.40;67.80;;;;;;5030965;28;20043;-81
2023/07/09 02:22:56;;;;;;;4.43;1.90;;;19.40;68.30;;;;;;5065651;28;20028;-81
2023/07/09 02:25:25;;;;;;;4.13;1.77;;;19.40;67.80;;;;;;5045126;28;20096;-82
2023/07/09 02:27:51;;;;;;;5.68;2.33;;;19.40;67.90;;;;;;5056843;28;20116;-82
2023/07/09 02:30:18;;;;;;;7.93;2.22;;;19.30;67.80;;;;;;5044040;28;20111;-81
2023/07/09 02:32:44;;;;;;;5.20;1.98;;;19.30;67.80;;;;;;5039999;28;20076;-80
2023/07/09 02:35:11;;;;;;;5.82;2.33;;;19.30;67.80;;;;;;5052711;28;20036;-80
2023/07/09 02:37:37;;;;;;;8.07;2.60;;;19.30;67.90;;;;;;5014639;28;20043;-81
2023/07/09 02:40:09;;;;;;;6.25;2.38;;;19.20;67.80;;;;;;5050264;28;20977;-82
2023/07/09 02:42:35;;;;;;;5.00;2.30;;;19.20;67.80;;;;;;5038732;28;20032;-81
2023/07/09 02:45:03;;;;;;;5.93;1.27;;;19.20;67.80;;;;;;5025892;28;20480;-82
2023/07/09 02:47:31;;;;;;;5.88;1.90;;;19.20;67.90;;;;;;5038249;28;20033;-81
2023/07/09 02:50:00;;;;;;;5.07;2.20;;;19.20;67.90;;;;;;5032625;28;20068;-79
2023/07/09 02:52:26;;;;;;;4.28;1.95;;;19.20;68.50;;;;;;5042609;28;20698;-80
2023/07/09 02:54:53;;;;;;;7.55;2.22;;;19.10;67.80;;;;;;5041662;28;20059;-80
2023/07/09 02:57:20;;;;;;;6.65;2.58;;;19.10;67.90;;;;;;5044849;28;20036;-83
2023/07/09 02:59:45;;;;;;;6.15;2.05;;;19.10;67.90;;;;;;5045319;28;20036;-84
2023/07/09 03:02:12;;;;;;;4.97;2.00;;;19.10;68.00;;;;;;5044263;28;20035;-83
2023/07/09 03:04:38;;;;;;;5.40;1.73;;;19.10;68.00;;;;;;5029831;28;20024;-80
2023/07/09 03:07:05;;;;;;;5.03;1.80;;;19.10;68.00;;;;;;5053313;28;20195;-80
2023/07/09 03:09:31;;;;;;;5.80;2.10;;;19.10;68.00;;;;;;5041929;28;20132;-80
2023/07/09 03:11:57;;;;;;;6.57;2.13;;;19.10;68.00;;;;;;5062080;28;20158;-82
2023/07/09 03:14:23;;;;;;;4.68;2.08;;;19.10;68.00;;;;;;5050168;28;20692;-82
2023/07/09 03:16:48;;;;;;;5.30;2.78;;;19.10;68.10;;;;;;5059621;28;20041;-82
2023/07/09 03:19:14;;;;;;;6.40;1.92;;;19.10;68.10;;;;;;5033938;28;20063;-82
2023/07/09 03:21:40;;;;;;;4.82;1.77;;;19.00;68.00;;;;;;5042542;28;20037;-81
2023/07/09 03:24:08;;;;;;;3.88;1.88;;;19.00;68.00;;;;;;5035842;28;20404;-81
2023/07/09 03:26:34;;;;;;;3.65;1.33;;;19.00;68.00;;;;;;5048999;28;20495;-82
2023/07/09 03:29:01;;;;;;;3.75;1.80;;;19.00;68.10;;;;;;5039398;28;20025;-81
2023/07/09 03:31:27;;;;;;;7.45;2.28;;;19.00;68.10;;;;;;5051771;28;20044;-81
2023/07/09 03:33:53;;;;;;;3.67;1.83;;;18.90;67.90;;;;;;5041341;28;20055;-81
2023/07/09 03:36:20;;;;;;;4.97;1.70;;;18.90;68.00;;;;;;5043505;28;20041;-82
2023/07/09 03:38:46;;;;;;;4.93;1.80;;;18.90;68.00;;;;;;5041570;28;20377;-81
2023/07/09 03:41:12;;;;;;;2.97;1.35;;;18.90;68.10;;;;;;5030849;28;20056;-81
2023/07/09 03:43:38;;;;;;;6.65;2.20;;;18.90;68.10;;;;;;5021193;28;20091;-81
2023/07/09 03:46:04;;;;;;;5.50;1.92;;;18.80;68.50;;;;;;5049093;28;20044;-82
2023/07/09 03:48:29;;;;;;;4.57;1.52;;;18.80;68.00;;;;;;5046912;28;20305;-81
2023/07/09 03:50:56;;;;;;;3.45;1.73;;;18.80;68.10;;;;;;5050693;28;20378;-80
2023/07/09 03:53:24;;;;;;;3.92;1.52;;;18.80;68.20;;;;;;5014152;28;20318;-80
2023/07/09 03:55:55;;;;;;;7.20;2.42;;;18.80;68.20;;;;;;5051840;28;20386;-80
2023/07/09 03:58:23;;;;;;;6.80;2.38;;;18.80;68.30;;;;;;5048394;28;20037;-80
2023/07/09 04:00:54;;;;;;;3.78;1.77;;;18.80;68.20;;;;;;5048605;28;20044;-80
2023/07/09 04:03:21;;;;;;;3.88;1.95;;;18.80;68.30;;;;;;5045114;28;20033;-81
2023/07/09 04:05:48;;;;;;;5.03;1.63;;;18.80;68.30;;;;;;5042586;28;20466;-82
2023/07/09 04:08:14;;;;;;;6.03;1.85;;;18.80;68.30;;;;;;5037562;28;20155;-82
2023/07/09 04:10:40;;;;;;;3.50;2.13;;;18.70;68.10;;;;;;5049452;28;20037;-81
2023/07/09 04:13:06;;;;;;;7.68;1.85;;;18.70;68.20;;;;;;5046831;28;20389;-83
2023/07/09 04:15:32;;;;;;;3.92;1.33;;;18.70;68.20;;;;;;5050109;28;20071;-82
2023/07/09 04:17:58;;;;;;;4.90;1.67;;;18.70;68.20;;;;;;5048246;28;20033;-82
2023/07/09 04:20:25;;;;;;;3.58;1.80;;;18.70;68.20;;;;;;5029745;28;20024;-82
2023/07/09 04:22:51;;;;;;;4.45;1.38;;;18.70;68.20;;;;;;5053206;28;20035;-82
2023/07/09 04:25:17;;;;;;;3.33;1.88;;;18.70;68.30;;;;;;5041753;28;20519;-81
2023/07/09 04:27:43;;;;;;;5.18;1.52;;;18.70;68.20;;;;;;5047229;28;20044;-82
2023/07/09 04:30:14;;;;;;;3.42;1.50;;;18.70;68.30;;;;;;5046265;28;20067;-82
2023/07/09 04:32:43;;;;;;;4.07;2.15;;;18.70;68.30;;;;;;5056448;28;20614;-82
2023/07/09 04:35:11;;;;;;;4.05;2.08;;;18.70;68.30;;;;;;5055638;28;20036;-82
2023/07/09 04:37:38;;;;;;;5.30;1.60;;;18.70;68.30;;;;;;5029788;28;20373;-82
2023/07/09 04:40:06;;;;;;;3.40;1.52;;;18.70;68.30;;;;;;5046434;28;20503;-83
2023/07/09 04:42:33;;;;;;;4.95;1.50;;;18.70;68.30;;;;;;5041340;28;20052;-81
2023/07/09 04:44:59;;;;;;;6.13;2.00;;;18.60;68.10;;;;;;5034492;28;20116;-81
2023/07/09 04:47:25;;;;;;;9.60;1.75;;;18.70;68.30;;;;;;5040566;28;20614;-80
2023/07/09 04:49:51;;;;;;;5.03;1.27;;;18.70;68.30;;;;;;5057309;28;20035;-80
2023/07/09 04:52:17;;;;;;;5.10;1.42;;;18.60;68.10;;;;;;5035868;28;20055;-80
2023/07/09 04:54:45;;;;;;;4.15;2.05;;;18.60;68.10;;;;;;5029996;28;20047;-80
2023/07/09 04:57:12;;;;;;;5.35;1.75;;;18.70;68.30;;;;;;5045962;28;20040;-80
2023/07/09 04:59:38;;;;;;;5.93;1.70;;;18.60;68.10;;;;;;5040719;28;20056;-79
2023/07/09 05:02:04;;;;;;;4.53;1.30;;;18.70;68.30;;;;;;5020246;28;20055;-79
2023/07/09 05:04:31;;;;;;;6.40;1.83;;;18.60;68.10;;;;;;5044607;28;20116;-79
2023/07/09 05:06:57;;;;;;;6.50;1.92;;;18.60;68.10;;;;;;5030258;28;20404;-78
2023/07/09 05:09:23;;;;;;;5.80;2.20;;;18.60;68.20;;;;;;5052434;28;20123;-79
2023/07/09 05:11:53;;;;;;;5.82;1.90;;;18.60;68.10;;;;;;5021316;28;20150;-80
2023/07/09 05:14:19;;;;;;;3.97;1.75;;;18.60;68.10;;;;;;5044009;28;20041;-79
2023/07/09 05:16:45;;;;;;;6.30;1.90;;;18.70;68.30;;;;;;5035368;28;20032;-79
2023/07/09 05:19:12;;;;;;;4.72;1.60;;;18.70;68.30;;;;;;5033596;28;20032;-79
2023/07/09 05:21:38;;;;;;;2.90;1.65;;;18.70;68.30;;;;;;5035586;28;20514;-79
2023/07/09 05:24:07;;;;;;;5.65;1.88;;;18.70;68.30;;;;;;5031998;28;20091;-78
2023/07/09 05:26:33;;;;;;;4.55;2.25;;;18.70;68.20;;;;;;5056945;28;20033;-79
2023/07/09 05:28:59;;;;;;;4.32;1.60;;;18.80;68.30;;;;;;5052731;28;20036;-80
2023/07/09 05:31:25;;;;;;;4.50;1.25;;;18.80;68.30;;;;;;5035934;28;20588;-78
2023/07/09 05:33:51;;;;;;;6.18;2.30;;;18.80;68.20;;;;;;5030800;28;20039;-79
2023/07/09 05:36:19;;;;;;;4.82;1.50;;;18.90;68.20;;;;;;5045508;28;20083;-80
2023/07/09 05:38:48;;;;;;;5.00;2.10;;;18.90;68.20;;;;;;5045684;28;20028;-80
2023/07/09 05:41:16;;;;;;;4.63;1.80;;;19.00;68.30;;;;;;5053963;28;20282;-80
2023/07/09 05:43:46;;;;;;;6.32;1.88;;;19.00;68.20;;;;;;5020636;28;20032;-81
2023/07/09 05:46:13;;;;;;;3.50;1.55;;;19.00;68.10;;;;;;5018901;28;20509;-80
2023/07/09 05:48:39;;;;;;;5.63;1.80;;;19.10;68.20;;;;;;5040320;28;20617;-80
2023/07/09 05:51:05;;;;;;;3.35;1.75;;;19.10;68.10;;;;;;5049241;28;20503;-80
2023/07/09 05:53:32;;;;;;;5.75;1.98;;;19.10;68.00;;;;;;5038385;28;20111;-77
2023/07/09 05:55:58;;;;;;;5.45;2.30;;;19.10;68.00;;;;;;5041778;28;20033;-77
2023/07/09 05:58:23;;;;;;;6.07;2.90;;;19.20;68.10;;;;;;5046740;28;20456;-78
2023/07/09 06:00:53;;;;;;;5.05;1.77;;;19.20;68.70;;;;;;5045026;28;20044;-76
2023/07/09 06:03:21;;;;;;;4.85;1.75;;;19.20;68.10;;;;;;5045945;28;20047;-76
2023/07/09 06:05:49;;;;;;;4.25;2.05;;;19.20;68.10;;;;;;5031964;28;20067;-77
2023/07/09 06:08:17;;;;;;;7.70;2.22;;;19.10;68.00;;;;;;5045535;28;20041;-77
2023/07/09 06:10:57;;;;;;;7.45;3.10;;;19.20;68.20;;;;;;5044539;28;20500;-78
2023/07/09 06:13:24;;;;;;;6.00;1.88;;;19.10;68.10;;;;;;5042499;28;20100;-78
2023/07/09 06:15:53;;;;;;;7.03;1.95;;;19.10;68.50;;;;;;5030557;28;20048;-78
2023/07/09 06:18:20;;;;;;;6.80;2.53;;;19.20;68.20;;;;;;5025429;28;20029;-77
2023/07/09 06:20:52;;;;;;;4.25;2.05;;;19.20;68.20;;;;;;5042169;28;20033;-77
2023/07/09 06:23:19;;;;;;;5.95;2.00;;;19.30;68.30;;;;;;5042692;28;20184;-77
2023/07/09 06:25:47;;;;;;;5.32;1.83;;;19.30;68.10;;;;;;5040604;28;20039;-76
2023/07/09 06:28:15;;;;;;;8.23;2.08;;;19.30;68.10;;;;;;5033162;28;20032;-76
2023/07/09 06:30:41;;;;;;;8.43;2.30;;;19.40;68.20;;;;;;5045535;28;20388;-76
2023/07/09 06:33:07;;;;;;;9.05;2.38;;;19.40;68.00;;;;;;5043770;28;20060;-76
2023/07/09 06:35:36;;;;;;;6.30;2.13;;;19.50;68.40;;;;;;5030103;28;20075;-76
2023/07/09 06:38:02;;;;;;;7.25;2.13;;;19.50;68.90;;;;;;5042711;28;20090;-76
2023/07/09 06:40:29;;;;;;;5.32;2.17;;;19.60;69.40;;;;;;5035586;28;20075;-78
2023/07/09 06:42:55;;;;;;;6.60;2.50;;;19.70;69.90;;;;;;5037873;28;20400;-78
2023/07/09 06:45:25;;;;;;;6.85;2.25;;;19.70;70.00;;;;;;5036084;28;20036;-76
2023/07/09 06:47:51;;;;;;;6.82;1.65;;;19.80;70.30;;;;;;5045813;28;20123;-76
2023/07/09 06:50:18;;;;;;;6.32;2.47;;;19.90;70.70;;;;;;5044557;28;20223;-77
2023/07/09 06:52:44;;;;;;;5.50;2.20;;;19.90;70.60;;;;;;5030301;28;20029;-77
2023/07/09 06:55:10;;;;;;;5.15;1.70;;;20.00;70.70;;;;;;5036219;28;20551;-77
2023/07/09 06:57:37;;;;;;;5.15;2.17;;;20.00;70.70;;;;;;5049336;28;20033;-77
2023/07/09 07:00:03;;;;;;;8.40;2.42;;;20.10;70.80;;;;;;5043751;28;20052;-82
2023/07/09 07:02:33;;;;;;;7.63;3.25;;;20.20;71.00;;;;;;5030628;28;20032;-78
2023/07/09 07:04:59;;;;;;;5.68;2.28;;;20.20;71.00;;;;;;5042156;28;20538;-78
2023/07/09 07:07:25;;;;;;;5.60;2.50;;;20.30;71.10;;;;;;5041799;28;20032;-78
2023/07/09 07:09:54;;;;;;;8.23;3.05;;;20.40;71.30;;;;;;5047543;28;20040;-78
2023/07/09 07:12:27;;;;;;;7.70;2.40;;;20.50;71.50;;;;;;5047880;28;20071;-78
2023/07/09 07:14:56;;;;;;;8.38;2.55;;;20.60;71.50;;;;;;5036700;28;20036;-78
2023/07/09 07:17:22;;;;;;;9.50;3.20;;;20.80;71.50;;;;;;5051837;28;20043;-80
2023/07/09 07:19:50;;;;;;;10.80;2.80;;;21.00;71.60;;;;;;5040530;28;20109;-77
2023/07/09 07:22:16;;;;;;;12.98;3.70;;;21.10;71.50;;;;;;5049828;28;20047;-76
2023/07/09 07:24:42;;;;;;;12.55;4.07;;;21.20;71.30;;;;;;5043283;28;20033;-77
2023/07/09 07:27:10;;;;;;;11.00;2.88;;;21.30;71.20;;;;;;5050350;28;20024;-77
2023/07/09 07:29:37;;;;;;;8.80;2.97;;;21.40;71.20;;;;;;5026597;28;20040;-76
2023/07/09 07:32:06;;;;;;;10.18;3.33;;;21.40;71.10;;;;;;5050935;28;20036;-77
2023/07/09 07:34:32;;;;;;;10.35;3.55;;;21.50;71.20;;;;;;5039080;28;20437;-78
2023/07/09 07:36:59;;;;;;;8.73;3.75;;;21.50;71.10;;;;;;5046652;28;20064;-79
2023/07/09 07:39:25;;;;;;;10.15;3.50;;;21.70;71.20;;;;;;5038038;28;20041;-77
2023/07/09 07:41:51;;;;;;;8.00;2.67;;;21.80;71.10;;;;;;5038986;28;20031;-77
2023/07/09 07:44:17;;;;;;;7.68;3.28;;;22.00;70.90;;;;;;5027348;28;20028;-77
2023/07/09 07:46:44;;;;;;;9.38;3.78;;;22.20;70.80;;;;;;5045325;28;20410;-78
2023/07/09 07:49:10;;;;;;;11.95;2.95;;;22.40;70.60;;;;;;5035203;28;20028;-80
2023/07/09 07:51:37;;;;;;;10.65;3.28;;;22.60;70.40;;;;;;5052413;28;20199;-79
2023/07/09 07:54:04;;;;;;;9.05;2.50;;;22.90;70.20;;;;;;5031740;28;20112;-79
2023/07/09 07:56:29;;;;;;;6.82;2.60;;;23.10;69.80;;;;;;5038385;28;20036;-79
2023/07/09 07:58:56;;;;;;;6.75;2.45;;;23.30;69.60;;;;;;5037763;28;20090;-81
2023/07/09 08:01:22;;;;;;;9.57;3.13;;;23.40;69.30;;;;;;5051491;28;20572;-79
2023/07/09 08:03:48;;;;;;;7.65;2.60;;;23.50;69.20;;;;;;5047446;28;20033;-80
2023/07/09 08:06:14;;;;;;;6.53;2.28;;;23.60;69.00;;;;;;5041446;28;20048;-82
2023/07/09 08:08:40;;;;;;;10.13;3.45;;;23.70;68.90;;;;;;5058831;28;20101;-94
2023/07/09 08:11:09;;;;;;;5.80;2.40;;;23.80;68.70;;;;;;5056103;28;20053;-91
2023/07/09 08:13:36;;;;;;;9.10;3.35;;;23.90;68.50;;;;;;5047500;28;20013;-85
2023/07/09 08:16:03;;;;;;;6.65;2.85;;;24.00;68.30;;;;;;5077793;28;20046;-95
2023/07/09 08:18:29;;;;;;;6.65;3.05;;;24.10;68.10;;;;;;5056316;28;20088;-95
2023/07/09 08:20:55;;;;;;;8.43;2.38;;;24.30;68.20;;;;;;5055627;28;20064;-82
2023/07/09 08:23:21;;;;;;;6.03;2.67;;;24.30;67.70;;;;;;5048255;28;20781;-78
2023/07/09 08:25:57;;;;;;;18.73;6.63;;;24.40;67.50;;;;;;5048965;28;20039;-80
2023/07/09 08:28:24;;;;;;;15.25;6.88;;;24.50;67.50;;;;;;5049606;28;20036;-81
2023/07/09 08:30:54;;;;;;;13.82;7.15;;;24.50;67.50;;;;;;5036337;28;20045;-81
2023/07/09 08:33:21;;;;;;;12.98;6.85;;;24.60;67.60;;;;;;5022443;28;20219;-81
2023/07/09 08:35:50;;;;;;;12.13;5.82;;;24.70;67.80;;;;;;5036476;28;20058;-79
2023/07/09 08:38:16;;;;;;;13.80;5.78;;;24.80;68.10;;;;;;5033421;28;20404;-78
2023/07/09 08:40:53;;;;;;;11.90;5.63;;;24.80;68.10;;;;;;5052305;28;20029;-78
2023/07/09 08:43:35;;;;;;;9.40;4.85;;;24.90;68.20;;;;;;5045775;28;20029;-79
2023/07/09 08:46:34;;;;;;;11.55;5.80;;;24.90;68.10;;;;;;5052058;28;20029;-79
2023/07/09 08:49:02;;;;;;;9.07;3.75;;;25.00;68.00;;;;;;5048447;28;20045;-78
2023/07/09 08:51:38;;;;;;;10.30;4.13;;;25.00;67.80;;;;;;5052748;28;20045;-79
2023/07/09 08:54:14;;;;;;;11.68;3.65;;;24.90;67.40;;;;;;5033141;28;20040;-79
2023/07/09 08:56:41;;;;;;;7.25;3.72;;;24.80;67.10;;;;;;5039097;28;20082;-81
2023/07/09 08:59:12;;;;;;;6.68;3.25;;;24.70;67.00;;;;;;5034351;28;20125;-79
2023/07/09 09:01:44;;;;;;;7.47;3.03;;;24.70;67.00;;;;;;5032353;28;20047;-81
2023/07/09 09:04:24;;;;;;;8.65;3.30;;;24.70;67.00;;;;;;5039493;28;20063;-79
2023/07/09 09:07:28;;;;;;;8.70;3.80;;;24.60;66.80;;;;;;5045936;28;20048;-80
2023/07/09 09:10:00;;;;;;;6.00;2.92;;;24.60;66.70;;;;;;5027795;28;20032;-78
2023/07/09 09:12:35;;;;;;;9.02;2.78;;;24.70;66.70;;;;;;5046781;28;20049;-80
2023/07/09 09:15:17;;;;;;;7.40;2.88;;;24.70;66.50;;;;;;5052034;28;20032;-79
2023/07/09 09:17:43;;;;;;;9.43;3.38;;;24.70;66.50;;;;;;5046842;28;20040;-79
2023/07/09 09:20:16;;;;;;;6.40;2.40;;;24.80;66.70;;;;;;5041305;28;20049;-78
2023/07/09 09:23:08;;;;;;;;;;;24.80;66.70;;;;;;5042224;28;20036;-79
2023/07/09 09:25:40;;;;;;;5.70;2.72;;;24.90;66.70;;;;;;5045941;28;19937;-79
2023/07/09 09:28:07;;;;;;;6.55;2.22;;;25.00;66.50;;;;;;5043602;28;20606;-77
2023/07/09 09:30:33;;;;;;;6.65;2.78;;;25.10;66.30;;;;;;5044452;28;20035;-78
2023/07/09 09:33:08;;;;;;;10.93;2.55;;;25.20;66.40;;;;;;5043777;28;20203;-77
2023/07/09 09:35:37;;;;;;;5.53;2.08;;;25.30;66.50;;;;;;5050012;28;20353;-80
2023/07/09 09:38:10;;;;;;;7.97;2.40;;;25.40;66.20;;;;;;5031207;28;20044;-79
2023/07/09 09:40:42;;;;;;;6.35;2.38;;;25.40;66.20;;;;;;5027422;28;20043;-79
2023/07/09 09:43:20;;;;;;;8.23;3.35;;;25.50;66.20;;;;;;5049501;28;20547;-79
2023/07/09 09:45:49;;;;;;;5.35;1.83;;;25.80;66.30;;;;;;5028831;28;20052;-78
2023/07/09 09:48:26;;;;;;;8.70;2.85;;;26.10;65.90;;;;;;5042239;28;20025;-79
2023/07/09 09:50:53;;;;;;;6.55;2.88;;;26.40;65.20;;;;;;5043369;28;20041;-79
2023/07/09 09:53:25;;;;;;;5.53;2.40;;;26.70;64.60;;;;;;5043926;28;20512;-79
2023/07/09 09:55:56;;;;;;;7.65;2.35;;;26.90;64.20;;;;;;5021005;28;20685;-80
2023/07/09 09:58:29;;;;;;;7.07;2.60;;;27.00;63.90;;;;;;5019402;28;20033;-81
2023/07/09 10:00:58;;;;;;;7.13;2.33;;;27.10;63.70;;;;;;5044438;28;20033;-81
2023/07/09 10:03:36;;;;;;;30.65;3.80;;;27.20;63.50;;;;;;5040999;28;20097;-79
2023/07/09 10:06:26;;;;;;;6.85;2.33;;;27.30;63.20;;;;;;5047452;28;20112;-77
2023/07/09 10:09:00;;;;;;;6.60;2.45;;;27.40;63.00;;;;;;5040843;28;20025;-79
2023/07/09 10:11:46;;;;;;;5.85;2.30;;;27.50;62.70;;;;;;5036961;28;20045;-77
2023/07/09 10:14:28;;;;;;;4.82;2.25;;;27.60;62.50;;;;;;5045464;28;20024;-77
2023/07/09 10:17:19;;;;;;;3.90;1.80;;;27.60;62.30;;;;;;5044080;28;20178;-77
2023/07/09 10:20:20;;;;;;;3.60;1.63;;;27.80;62.20;;;;;;5005654;28;20480;-77
2023/07/09 10:22:57;;;;;;;6.00;2.35;;;27.90;61.90;;;;;;5040581;28;20098;-79
2023/07/09 10:25:39;;;;;;;8.00;2.22;;;28.00;61.70;;;;;;5037777;28;20032;-78
2023/07/09 10:28:24;;;;;;;;;;;28.00;61.30;;;;;;5045082;28;20071;-78
2023/07/09 10:31:08;;;;;;;6.82;2.38;;;28.10;61.20;;;;;;5045284;28;19920;-79
2023/07/09 10:33:46;;;;;;;5.85;2.75;;;28.20;61.10;;;;;;5046172;28;20072;-78
2023/07/09 10:36:49;;;;;;;6.43;2.03;;;28.30;60.90;;;;;;5047295;28;20273;-78
2023/07/09 10:39:25;;;;;;;6.55;2.13;;;28.40;60.40;;;;;;5025459;28;20134;-79
2023/07/09 10:41:57;;;;;;;5.97;1.58;;;28.50;60.20;;;;;;5040704;28;20029;-77
2023/07/09 10:44:42;;;;;;;7.15;1.95;;;28.70;60.00;;;;;;5033876;28;20039;-77
2023/07/09 10:47:48;;;;;;;5.18;1.58;;;29.00;59.60;;;;;;5051834;28;20108;-76
2023/07/09 10:50:43;;;;;;;4.40;1.58;;;29.10;58.90;;;;;;5015954;28;20052;-78
2023/07/09 10:53:20;;;;;;;5.28;1.95;;;29.20;58.50;;;;;;5046181;28;20063;-77
2023/07/09 10:56:13;;;;;;;13.40;2.90;;;29.30;58.50;;;;;;5029730;28;20097;-77
2023/07/09 10:59:10;;;;;;;3.67;1.58;;;29.40;58.40;;;;;;5029817;28;20122;-78
2023/07/09 11:01:48;;;;;;;5.47;1.48;;;29.50;58.10;;;;;;5030200;28;20041;-81
2023/07/09 11:04:52;;;;;;;4.32;2.10;;;29.60;58.00;;;;;;5042469;28;20091;-78
2023/07/09 11:07:25;;;;;;;4.45;1.20;;;29.70;57.50;;;;;;5028245;28;20110;-81
2023/07/09 11:09:54;;;;;;;3.58;1.60;;;29.90;57.50;;;;;;5037403;28;20047;-80
2023/07/09 11:12:41;;;;;;;4.57;1.90;;;30.10;57.30;;;;;;5016705;28;20098;-78
2023/07/09 11:15:22;;;;;;;4.80;1.98;;;30.50;56.90;;;;;;5043136;28;20151;-78
2023/07/09 11:17:51;;;;;;;9.05;2.13;;;31.00;56.10;;;;;;5046600;28;20036;-77
2023/07/09 11:20:25;;;;;;;6.38;1.80;;;31.50;55.20;;;;;;5027971;28;20041;-77
2023/07/09 11:22:54;;;;;;;4.45;1.80;;;31.90;54.50;;;;;;5024175;28;20519;-77
2023/07/09 11:25:42;;;;;;;5.82;2.30;;;32.00;53.90;;;;;;5048511;28;20451;-78
2023/07/09 11:28:09;;;;;;;6.93;2.05;;;32.30;53.40;;;;;;5053366;28;20036;-79
2023/07/09 11:30:53;;;;;;;5.95;1.63;;;32.60;53.10;;;;;;5036528;28;20036;-80
2023/07/09 11:33:29;;;;;;;4.70;2.28;;;32.90;52.40;;;;;;5044206;28;20052;-77
2023/07/09 11:36:09;;;;;;;11.73;5.40;;;33.20;52.10;;;;;;5044568;28;20514;-80
2023/07/09 11:38:44;;;;;;;7.38;4.45;;;33.50;51.60;;;;;;5044124;28;20393;-77
2023/07/09 11:41:33;;;;;;;8.27;4.43;;;33.80;51.30;;;;;;5049034;28;20381;-77
2023/07/09 11:44:15;;;;;;;6.97;4.30;;;34.00;50.80;;;;;;5050086;28;20179;-77
2023/07/09 11:46:50;;;;;;;9.25;4.55;;;34.10;50.20;;;;;;5043718;28;20389;-77
2023/07/09 11:49:21;;;;;;;8.10;4.20;;;34.20;50.20;;;;;;5049816;28;20124;-78
2023/07/09 11:51:57;;;;;;;8.20;3.80;;;34.30;50.20;;;;;;5042882;28;20052;-79
2023/07/09 11:54:36;;;;;;;9.02;3.83;;;34.30;49.70;;;;;;5038738;28;20059;-78
2023/07/09 11:57:03;;;;;;;8.13;3.17;;;34.30;49.90;;;;;;5019611;28;20040;-78
2023/07/09 11:59:29;;;;;;;4.72;3.13;;;34.30;49.80;;;;;;5041246;28;20037;-80
2023/07/09 12:02:00;;;;;;;4.90;2.83;;;34.40;49.50;;;;;;5035309;28;20575;-82
2023/07/09 12:04:33;;;;;;;4.70;2.33;;;34.70;49.10;;;;;;5052205;28;20064;-77
2023/07/09 12:07:02;;;;;;;4.97;2.47;;;35.10;48.50;;;;;;5045028;28;20531;-78
2023/07/09 12:09:37;;;;;;;5.47;2.28;;;35.20;47.90;;;;;;5031209;28;20536;-89
2023/07/09 12:12:03;;;;;;;5.40;2.35;;;35.40;47.70;;;;;;5035025;28;20120;-80
2023/07/09 12:14:29;;;;;;;5.13;2.30;;;35.60;47.40;;;;;;5044902;28;20049;-81
2023/07/09 12:16:55;;;;;;;2.20;1.58;;;35.80;46.90;;;;;;5039963;28;20045;-83
2023/07/09 12:19:24;;;;;;;2.83;1.77;;;35.90;46.40;;;;;;5023571;28;20056;-83
2023/07/09 12:21:56;;;;;;;4.32;1.67;;;35.90;45.90;;;;;;5018582;28;20707;-79
2023/07/09 12:24:35;;;;;;;4.30;1.83;;;36.00;45.50;;;;;;5052326;28;20066;-80
2023/07/09 12:27:03;;;;;;;6.13;1.95;;;35.90;45.30;;;;;;5027020;28;20033;-79
2023/07/09 12:29:34;;;;;;;4.47;1.85;;;35.90;45.50;;;;;;5034583;28;20097;-78
2023/07/09 12:32:10;;;;;;;6.38;1.92;;;35.80;45.30;;;;;;5046735;28;20165;-80
2023/07/09 12:34:36;;;;;;;4.93;1.67;;;36.00;45.00;;;;;;5035228;28;20140;-82
2023/07/09 12:37:02;;;;;;;4.78;1.48;;;36.20;44.90;;;;;;5017114;28;20044;-81
2023/07/09 12:39:31;;;;;;;2.63;1.50;;;36.40;45.00;;;;;;5045968;28;20228;-82
2023/07/09 12:42:01;;;;;;;4.15;1.40;;;36.60;44.70;;;;;;5035260;28;20441;-80
2023/07/09 12:44:31;;;;;;;3.60;1.38;;;36.90;44.50;;;;;;5039459;28;20071;-82
2023/07/09 12:46:57;;;;;;;4.40;1.55;;;37.20;44.20;;;;;;5052021;28;20037;-80
2023/07/09 12:49:29;;;;;;;4.03;1.30;;;37.60;44.10;;;;;;5048974;28;20032;-80
2023/07/09 12:52:01;;;;;;;3.78;1.55;;;37.80;43.80;;;;;;5006296;28;20047;-80
2023/07/09 12:54:30;;;;;;;4.05;1.60;;;38.00;43.70;;;;;;5048870;28;20500;-79
2023/07/09 12:56:59;;;;;;;2.10;1.10;;;38.20;44.10;;;;;;5045290;28;20072;-79
2023/07/09 12:59:27;;;;;;;4.93;1.27;;;38.30;43.40;;;;;;5038283;28;20116;-82
2023/07/09 13:02:20;;;;;;;2.78;1.10;;;38.40;43.30;;;;;;5033455;28;20549;-80
2023/07/09 13:04:47;;;;;;;3.08;1.30;;;38.50;43.20;;;;;;5051725;28;20055;-79